Time;durP1;ratioP1;P1;durP2;ratioP2;P2;SDS_P1;SDS_P2;PMS_P1;PMS_P2;Temp;Humidity;BMP_temperature;BMP_pressure;BME280_temperature;BME280_humidity;BME280_pressure;Samples;Min_cycle;Max_cycle;Signal;HPM_P1;HPM_P2
2021/09/21 05:24:59;;;;;;;11.68;6.00;;;;;;;8.39;80.35;99354.84;5317903;23;20064;-80
2021/09/21 05:27:27;;;;;;;14.05;5.70;;;;;;;8.35;80.76;99353.81;4897975;29;20165;-79
2021/09/21 05:29:53;;;;;;;17.42;6.88;;;;;;;8.35;80.96;99361.97;4912079;29;20171;-81
2021/09/21 05:32:19;;;;;;;12.38;5.90;;;;;;;8.39;80.67;99357.56;4901733;29;20098;-92
2021/09/21 05:34:46;;;;;;;14.48;6.00;;;;;;;8.38;80.89;99358.69;4897391;29;20095;-91
2021/09/21 05:37:12;;;;;;;13.65;5.10;;;;;;;8.33;80.37;99347.84;4892841;29;20051;-91
2021/09/21 05:39:38;;;;;;;11.68;5.32;;;;;;;8.31;80.78;99339.13;4895847;29;20036;-84
2021/09/21 05:42:05;;;;;;;11.20;5.53;;;;;;;8.39;80.68;99355.66;4901849;29;20088;-79
2021/09/21 05:44:30;;;;;;;11.27;5.70;;;;;;;8.41;80.82;99347.19;4895234;29;20091;-78
2021/09/21 05:46:57;;;;;;;10.85;5.00;;;;;;;8.50;80.69;99353.56;4896802;29;20068;-79
2021/09/21 05:49:22;;;;;;;13.45;6.50;;;;;;;8.57;80.40;99353.97;4896391;29;20060;-78
2021/09/21 05:51:50;;;;;;;10.70;6.13;;;;;;;8.67;80.01;99353.81;4896247;29;20049;-88
2021/09/21 05:54:16;;;;;;;9.65;5.22;;;;;;;8.64;79.71;99354.44;4903784;29;20044;-79
2021/09/21 05:56:44;;;;;;;16.50;9.35;;;;;;;8.54;79.98;99351.84;4896411;29;20032;-79
2021/09/21 05:59:10;;;;;;;16.85;7.90;;;;;;;8.49;80.26;99343.78;4895921;29;20491;-79
2021/09/21 06:01:36;;;;;;;14.18;5.82;;;;;;;8.51;80.40;99346.19;4892403;29;20447;-78
2021/09/21 06:04:03;;;;;;;14.73;6.95;;;;;;;8.62;80.63;99351.19;4895390;29;20079;-78
2021/09/21 06:06:29;;;;;;;;;;;;;;;8.59;80.48;99351.78;4895560;29;20047;-78
2021/09/21 06:08:55;;;;;;;9.97;6.00;;;;;;;8.66;80.01;99348.66;4895241;29;19923;-78
2021/09/21 06:11:27;;;;;;;13.23;7.05;;;;;;;8.57;80.14;99345.00;4895429;29;20036;-77
2021/09/21 06:13:55;;;;;;;13.38;5.88;;;;;;;8.55;80.27;99341.78;4895654;29;20044;-78
2021/09/21 06:16:23;;;;;;;14.35;7.53;;;;;;;8.59;80.47;99340.88;4895880;29;20127;-88
2021/09/21 06:18:48;;;;;;;10.57;5.83;;;;;;;8.59;80.54;99348.25;4900112;29;20501;-89
2021/09/21 06:21:14;;;;;;;12.38;6.00;;;;;;;8.58;80.67;99346.66;4902695;29;20041;-82
2021/09/21 06:23:42;;;;;;;16.23;7.90;;;;;;;8.60;80.89;99347.13;4900231;29;20127;-81
2021/09/21 06:26:08;;;;;;;14.88;6.20;;;;;;;8.63;80.96;99349.25;4908106;29;20072;-77
2021/09/21 06:28:34;;;;;;;16.15;6.15;;;;;;;8.71;80.33;99348.59;4913258;29;20036;-78
2021/09/21 06:31:02;;;;;;;12.07;5.88;;;;;;;8.71;80.09;99345.88;4913135;29;20044;-77
2021/09/21 06:33:28;;;;;;;14.77;7.13;;;;;;;8.78;79.90;99342.75;4904797;29;20119;-78
2021/09/21 06:35:53;;;;;;;19.02;6.07;;;;;;;8.66;80.07;99340.50;4911334;29;20097;-88
2021/09/21 06:38:19;;;;;;;10.23;5.47;;;;;;;8.74;80.54;99358.06;4913615;29;20048;-79
2021/09/21 06:40:46;;;;;;;14.23;6.30;;;;;;;8.63;80.26;99357.44;4900132;29;20040;-82
2021/09/21 06:43:13;;;;;;;15.18;5.82;;;;;;;8.77;80.21;99357.47;4908338;29;20051;-87
2021/09/21 06:45:39;;;;;;;11.80;6.43;;;;;;;8.82;80.18;99358.19;4906257;29;20055;-89
2021/09/21 06:48:05;;;;;;;12.90;5.32;;;;;;;8.85;79.70;99363.06;4894503;29;20036;-89
2021/09/21 06:50:31;;;;;;;12.90;6.00;;;;;;;8.83;79.67;99356.28;4902376;29;20908;-90
2021/09/21 06:52:58;;;;;;;11.87;6.00;;;;;;;8.77;79.79;99352.00;4909628;29;20043;-86
2021/09/21 06:55:24;;;;;;;11.68;6.43;;;;;;;8.84;79.95;99356.00;4904961;29;20080;-87
2021/09/21 06:57:51;;;;;;;13.02;6.70;;;;;;;8.97;79.58;99368.00;4900484;29;20576;-91
2021/09/21 07:00:18;;;;;;;11.68;5.97;;;;;;;8.94;79.40;99357.72;4911772;29;20078;-90
2021/09/21 07:02:48;;;;;;;13.70;6.25;;;;;;;8.93;79.39;99356.88;4909511;29;20047;-89
2021/09/21 07:05:14;;;;;;;13.15;6.93;;;;;;;9.00;79.29;99361.16;4899493;29;20056;-81
2021/09/21 07:07:45;;;;;;;13.30;6.47;;;;;;;9.02;79.24;99362.47;4900096;29;20053;-88
2021/09/21 07:10:14;;;;;;;34.20;12.38;;;;;;;9.03;79.27;99353.16;4898118;29;20036;-83
2021/09/21 07:12:41;;;;;;;15.63;7.30;;;;;;;8.88;79.35;99357.00;4897502;29;20059;-87
2021/09/21 07:15:11;;;;;;;14.80;8.20;;;;;;;8.98;79.65;99366.09;4895120;29;20133;-82
2021/09/21 07:17:38;;;;;;;14.57;7.35;;;;;;;8.96;79.77;99366.41;4898112;29;20083;-85
2021/09/21 07:20:10;;;;;;;12.65;8.25;;;;;;;8.95;79.65;99362.06;4904932;29;20390;-85
2021/09/21 07:22:41;;;;;;;14.02;7.82;;;;;;;8.99;79.61;99359.53;4915798;29;20087;-86
2021/09/21 07:25:10;;;;;;;17.55;9.05;;;;;;;9.04;79.58;99367.59;4899191;29;20048;-81
2021/09/21 07:27:37;;;;;;;23.38;12.55;;;;;;;9.18;79.70;99361.06;4900036;29;20048;-81
2021/09/21 07:30:07;;;;;;;14.77;7.35;;;;;;;9.21;78.78;99359.66;4899226;29;20438;-81
2021/09/21 07:32:40;;;;;;;14.20;8.02;;;;;;;9.29;78.83;99358.94;4895156;29;20052;-81
2021/09/21 07:35:13;;;;;;;18.17;7.15;;;;;;;9.27;78.63;99360.34;4900627;29;20047;-81
2021/09/21 07:37:39;;;;;;;14.73;6.57;;;;;;;9.28;78.76;99367.44;4908321;29;20083;-81
2021/09/21 07:40:10;;;;;;;13.90;7.03;;;;;;;9.13;78.86;99358.41;4917074;29;20044;-80
2021/09/21 07:43:08;;;;;;;12.88;7.68;;;;;;;9.23;78.87;99364.78;4916952;29;20642;-81
2021/09/21 07:46:04;;;;;;;15.60;8.00;;;;;;;9.30;78.46;99365.19;4820311;29;20091;-89
2021/09/21 07:48:54;;;;;;;20.85;7.25;;;;;;;9.10;78.83;99355.50;4807367;29;20049;-89
2021/09/21 07:51:26;;;;;;;16.58;7.65;;;;;;;8.97;79.66;99364.47;4821506;29;20079;-84
2021/09/21 07:54:01;;;;;;;12.40;7.55;;;;;;;9.13;79.44;99349.44;4822162;29;20038;-80
2021/09/21 07:56:30;;;;;;;15.60;6.70;;;;;;;9.05;79.32;99347.44;4822116;29;20145;-85
2021/09/21 07:58:57;;;;;;;;;;;;;;;9.05;79.48;99348.22;4822208;29;20126;-80
2021/09/21 08:01:26;;;;;;;19.42;7.47;;;;;;;9.12;79.69;99348.63;4821794;29;19925;-80
2021/09/21 08:03:54;;;;;;;15.65;6.93;;;;;;;9.15;79.40;99355.41;4821881;29;20054;-82
2021/09/21 08:06:24;;;;;;;19.38;7.20;;;;;;;9.17;79.05;99348.56;4822786;29;20046;-81
2021/09/21 08:09:00;;;;;;;14.23;7.07;;;;;;;9.21;79.42;99354.22;4822524;29;20053;-85
2021/09/21 08:11:31;;;;;;;14.00;6.65;;;;;;;9.28;79.00;99340.97;4807404;29;20042;-79
2021/09/21 08:14:11;;;;;;;18.23;8.50;;;;;;;9.28;79.14;99351.06;4821805;29;20544;-81
2021/09/21 08:16:42;;;;;;;16.38;7.20;;;;;;;9.29;78.11;99348.03;4821766;29;20058;-90
2021/09/21 08:19:13;;;;;;;14.82;6.78;;;;;;;9.20;78.86;99344.38;4823998;29;20118;-90
2021/09/21 08:21:43;;;;;;;16.15;8.50;;;;;;;9.21;79.15;99353.41;4836827;29;20135;-92
2021/09/21 08:24:10;;;;;;;15.68;7.88;;;;;;;9.30;78.98;99349.63;4880858;29;20448;-86
2021/09/21 08:26:39;;;;;;;13.80;7.60;;;;;;;9.21;79.02;99346.03;4881160;29;20044;-90
2021/09/21 08:29:12;;;;;;;19.48;6.80;;;;;;;9.30;78.83;99352.38;4881148;29;20124;-81
2021/09/21 08:31:46;;;;;;;24.67;12.38;;;;;;;9.27;79.06;99350.28;4879799;29;20065;-89
2021/09/21 08:34:15;;;;;;;14.30;6.78;;;;;;;9.20;78.79;99349.84;4880422;29;20139;-81
2021/09/21 08:36:42;;;;;;;;;;;;;;;9.26;79.50;99345.91;4891641;29;20041;-82
2021/09/21 08:39:11;;;;;;;;;;;;;;;9.35;78.84;99346.00;4898677;29;19975;-79
2021/09/21 08:41:39;;;;;;;16.30;7.57;;;;;;;9.31;78.85;99356.72;4889301;29;19924;-79
2021/09/21 08:44:10;;;;;;;17.27;8.57;;;;;;;9.27;79.18;99353.00;4875842;29;20399;-80
2021/09/21 08:46:48;;;;;;;17.35;7.90;;;;;;;9.30;79.19;99357.00;4902816;29;20056;-80
2021/09/21 08:49:18;;;;;;;15.55;8.00;;;;;;;9.27;78.87;99355.72;4916553;29;20095;-82
2021/09/21 08:51:47;;;;;;;14.90;8.15;;;;;;;9.25;79.11;99359.84;4917509;29;20047;-79
2021/09/21 08:54:16;;;;;;;21.30;11.35;;;;;;;9.07;79.05;99354.19;4903766;29;20135;-79
2021/09/21 08:56:49;;;;;;;31.55;13.73;;;;;;;9.20;79.39;99357.22;4898035;29;20044;-79
2021/09/21 08:59:49;;;;;;;29.25;16.48;;;;;;;9.28;78.93;99359.25;4898180;29;20412;-80
2021/09/21 09:02:21;;;;;;;18.75;11.27;;;;;;;9.28;78.67;99351.06;4896745;29;20045;-79
2021/09/21 09:05:04;;;;;;;18.45;10.70;;;;;;;9.13;79.10;99352.97;4896870;29;20059;-79
2021/09/21 09:07:57;;;;;;;17.30;10.57;;;;;;;9.29;79.00;99355.41;4896504;29;20068;-80
2021/09/21 09:10:25;;;;;;;17.50;9.75;;;;;;;9.30;78.91;99357.00;4897162;29;20588;-86
2021/09/21 09:12:51;;;;;;;20.23;11.18;;;;;;;9.29;78.47;99352.69;4897026;29;20055;-79
2021/09/21 09:15:21;;;;;;;19.42;10.95;;;;;;;9.22;79.01;99355.81;4896249;29;20056;-80
2021/09/21 09:18:03;;;;;;;22.38;11.98;;;;;;;9.36;78.32;99356.59;4886338;29;20093;-79
2021/09/21 09:20:38;;;;;;;20.38;11.15;;;;;;;9.32;78.14;99352.06;4878260;29;20041;-82
2021/09/21 09:23:07;;;;;;;22.48;12.80;;;;;;;9.32;78.60;99357.53;4878185;29;20052;-79
2021/09/21 09:25:41;;;;;;;24.27;14.43;;;;;;;9.14;78.97;99351.88;4877894;29;20066;-79
2021/09/21 09:28:14;;;;;;;25.02;14.68;;;;;;;9.29;79.23;99358.94;4880085;29;20044;-81
2021/09/21 09:30:42;;;;;;;23.30;12.00;;;;;;;9.24;78.95;99355.50;4891021;29;20048;-81
2021/09/21 09:33:08;;;;;;;22.58;11.18;;;;;;;9.14;79.08;99356.53;4885896;29;20077;-81
2021/09/21 09:35:40;;;;;;;18.33;9.50;;;;;;;9.05;79.09;99345.50;4877741;29;20144;-82
2021/09/21 09:38:10;;;;;;;18.38;9.60;;;;;;;9.20;79.43;99359.94;4878577;29;20045;-80
2021/09/21 09:40:47;;;;;;;14.10;8.48;;;;;;;9.29;79.57;99349.94;4877890;29;20112;-81
2021/09/21 09:43:15;;;;;;;16.25;8.57;;;;;;;9.27;78.51;99368.53;4876955;29;20044;-81
2021/09/21 09:45:44;;;;;;;17.20;8.35;;;;;;;9.23;78.97;99371.06;4877971;29;20057;-79
2021/09/21 09:48:17;;;;;;;13.10;8.30;;;;;;;9.25;78.67;99360.66;4878007;29;20044;-81
2021/09/21 09:50:46;;;;;;;17.08;8.85;;;;;;;9.28;78.43;99373.69;4877885;29;20434;-87
2021/09/21 09:53:12;;;;;;;20.90;9.15;;;;;;;9.16;78.84;99376.91;4877612;29;20513;-80
2021/09/21 09:55:41;;;;;;;20.45;7.70;;;;;;;9.08;78.88;99357.72;4877943;29;20052;-82
2021/09/21 09:58:08;;;;;;;19.10;8.63;;;;;;;9.20;79.22;99377.13;4876456;29;20044;-80
2021/09/21 10:00:37;;;;;;;26.08;12.55;;;;;;;9.10;79.18;99375.38;4877631;29;20049;-81
2021/09/21 10:03:04;;;;;;;17.63;8.75;;;;;;;9.16;79.12;99367.94;4877452;29;20515;-81
2021/09/21 10:05:36;;;;;;;22.08;10.25;;;;;;;9.22;79.27;99366.72;4877308;29;20053;-82
2021/09/21 10:08:04;;;;;;;18.38;8.65;;;;;;;9.27;79.19;99369.38;4876164;29;20463;-79
2021/09/21 10:10:31;;;;;;;27.38;12.07;;;;;;;9.17;79.32;99372.25;4877635;29;20408;-79
2021/09/21 10:13:03;;;;;;;17.98;8.60;;;;;;;9.06;79.43;99374.38;4877354;29;20248;-81
2021/09/21 10:15:31;;;;;;;20.42;9.38;;;;;;;9.11;79.48;99368.03;4877339;29;20589;-83
2021/09/21 10:17:59;;;;;;;19.40;8.70;;;;;;;9.12;79.50;99373.19;4877669;29;20089;-84
2021/09/21 10:20:38;;;;;;;16.60;9.02;;;;;;;9.17;79.28;99377.72;4877348;29;20084;-79
2021/09/21 10:25:43;;;;;;;17.02;8.68;;;;;;;9.04;79.56;99379.34;4876726;29;20092;-84
2021/09/21 10:28:20;;;;;;;21.77;9.65;;;;;;;8.94;79.76;99365.91;4876045;29;20049;-86
2021/09/21 10:30:53;;;;;;;;;;;;;;;9.11;79.77;99390.66;4876504;29;20037;-86
2021/09/21 10:33:23;;;;;;;19.33;9.15;;;;;;;9.24;79.47;99382.78;4877107;29;20134;-82
2021/09/21 10:35:50;;;;;;;21.92;10.38;;;;;;;9.27;79.66;99384.91;4876316;29;20083;-83
2021/09/21 10:38:19;;;;;;;22.92;12.27;;;;;;;9.23;78.88;99365.59;4877261;29;20064;-83
2021/09/21 10:40:50;;;;;;;20.58;10.80;;;;;;;9.29;78.82;99378.03;4877250;29;20045;-79
2021/09/21 10:43:29;;;;;;;18.67;9.43;;;;;;;9.16;78.83;99385.09;4877482;29;20037;-82
2021/09/21 10:46:17;;;;;;;35.50;16.35;;;;;;;9.11;79.41;99385.22;4877240;29;20060;-81
2021/09/21 10:48:45;;;;;;;33.88;14.55;;;;;;;9.11;79.55;99382.47;4879620;29;20506;-82
2021/09/21 10:51:12;;;;;;;36.00;14.05;;;;;;;9.25;79.36;99392.59;4880621;29;20045;-82
2021/09/21 10:53:40;;;;;;;35.90;16.83;;;;;;;9.25;79.53;99384.41;4880663;29;20045;-82
2021/09/21 10:58:53;;;;;;;23.70;10.57;;;;;;;9.02;79.39;99367.13;4880446;29;20041;-81
2021/09/21 11:01:20;;;;;;;24.02;12.05;;;;;;;9.05;79.62;99380.94;4880485;29;20044;-82
2021/09/21 11:03:47;;;;;;;26.10;11.32;;;;;;;8.96;79.90;99385.47;4880847;29;20143;-83
2021/09/21 11:06:16;;;;;;;20.83;10.70;;;;;;;8.97;79.70;99386.28;4880424;29;20400;-83
2021/09/21 11:08:44;;;;;;;;;;;;;;;9.05;79.63;99388.31;4880951;29;20045;-80
2021/09/21 11:11:10;;;;;;;19.60;9.43;;;;;;;9.05;79.87;99389.13;4880420;29;19928;-83
2021/09/21 11:13:40;;;;;;;19.08;9.35;;;;;;;8.96;79.82;99380.03;4880415;29;20154;-83
2021/09/21 11:16:13;;;;;;;22.30;10.07;;;;;;;9.07;79.79;99388.81;4880699;29;20064;-82
2021/09/21 11:18:42;;;;;;;29.77;13.18;;;;;;;9.03;79.75;99380.44;4879118;29;20055;-83
2021/09/21 11:21:11;;;;;;;26.10;12.55;;;;;;;8.96;79.59;99373.75;4880314;29;20124;-82
2021/09/21 11:23:41;;;;;;;35.95;11.77;;;;;;;9.01;79.57;99393.56;4878960;29;20105;-82
2021/09/21 11:26:10;;;;;;;17.02;9.50;;;;;;;9.04;79.55;99389.41;4878937;29;20095;-83
2021/09/21 11:28:42;;;;;;;22.77;9.15;;;;;;;9.05;79.43;99391.06;4880250;29;20045;-83
2021/09/21 11:31:09;;;;;;;43.10;13.00;;;;;;;9.05;79.43;99386.41;4880077;29;20123;-83
2021/09/21 11:33:38;;;;;;;35.28;18.75;;;;;;;9.03;79.52;99374.16;4880085;29;20083;-83
2021/09/21 11:36:10;;;;;;;34.50;17.27;;;;;;;8.97;79.44;99378.91;4880040;29;20062;-83
2021/09/21 11:38:44;;;;;;;39.75;16.95;;;;;;;9.04;79.60;99382.06;4879945;29;20145;-83
2021/09/21 11:41:13;;;;;;;46.33;20.27;;;;;;;9.07;79.47;99383.38;4880205;29;20045;-82
2021/09/21 11:43:40;;;;;;;69.82;27.95;;;;;;;9.01;79.38;99373.69;4879755;29;20105;-82
2021/09/21 11:46:07;;;;;;;42.38;18.98;;;;;;;9.07;79.28;99370.56;4863240;29;20068;-82
2021/09/21 11:48:33;;;;;;;61.67;27.08;;;;;;;9.03;79.43;99371.44;4879754;29;20049;-82
2021/09/21 11:50:59;;;;;;;31.83;15.15;;;;;;;8.93;79.55;99378.69;4879557;29;20088;-82
2021/09/21 11:53:28;;;;;;;31.30;13.60;;;;;;;8.89;79.70;99371.44;4879632;29;20049;-83
2021/09/21 11:55:58;;;;;;;20.42;11.68;;;;;;;8.82;79.56;99360.91;4880142;29;20049;-82
2021/09/21 11:58:30;;;;;;;24.33;11.23;;;;;;;8.87;79.84;99368.19;4878098;29;20057;-82
2021/09/21 12:01:02;;;;;;;20.10;10.13;;;;;;;8.92;79.96;99368.91;4879646;29;20423;-83
2021/09/21 12:03:29;;;;;;;17.88;9.80;;;;;;;8.89;79.82;99369.50;4879504;29;20073;-83
2021/09/21 12:05:59;;;;;;;18.17;9.48;;;;;;;8.85;80.29;99365.78;4879481;29;20443;-83
2021/09/21 12:08:31;;;;;;;15.85;8.43;;;;;;;8.88;80.00;99373.34;4879395;29;20094;-84
2021/09/21 12:11:06;;;;;;;20.42;9.75;;;;;;;8.98;79.97;99377.00;4879408;29;20124;-83
2021/09/21 12:13:34;;;;;;;20.88;10.35;;;;;;;8.94;79.70;99374.88;4879332;29;20579;-85
2021/09/21 12:16:02;;;;;;;;;;;;;;;8.98;79.81;99371.56;4879665;29;20101;-82
2021/09/21 12:18:32;;;;;;;20.45;8.32;;;;;;;8.98;79.56;99366.09;4879115;29;19980;-84
2021/09/21 12:21:13;;;;;;;17.42;9.25;;;;;;;8.82;79.64;99368.28;4879173;29;20047;-87
2021/09/21 12:23:44;;;;;;;16.08;7.30;;;;;;;8.79;79.81;99369.69;4879384;29;20156;-86
2021/09/21 12:26:11;;;;;;;13.63;7.95;;;;;;;8.77;80.12;99365.66;4877617;29;20045;-84
2021/09/21 12:28:40;;;;;;;18.08;8.35;;;;;;;8.86;80.15;99366.56;4879174;29;20041;-90
2021/09/21 12:31:11;;;;;;;17.75;9.13;;;;;;;8.67;80.24;99353.81;4878251;29;20089;-90
2021/09/21 12:33:39;;;;;;;16.88;9.05;;;;;;;8.81;80.42;99370.22;4878087;29;20067;-92
2021/09/21 12:36:07;;;;;;;14.43;7.30;;;;;;;8.88;79.98;99365.19;4879157;29;20077;-90
2021/09/21 12:38:34;;;;;;;20.83;8.82;;;;;;;8.93;79.44;99372.44;4877765;29;20116;-89
2021/09/21 12:41:05;;;;;;;24.30;9.32;;;;;;;8.91;79.49;99367.31;4877849;29;20488;-90
2021/09/21 12:43:42;;;;;;;17.55;9.50;;;;;;;8.82;79.58;99363.66;4878968;29;20049;-90
2021/09/21 12:46:10;;;;;;;15.90;7.87;;;;;;;8.64;79.49;99335.34;4878950;29;20044;-90
2021/09/21 12:48:42;;;;;;;17.75;8.18;;;;;;;8.76;79.69;99370.28;4878787;29;20293;-89
2021/09/21 12:51:10;;;;;;;16.25;8.63;;;;;;;8.85;79.79;99373.94;4879134;29;20081;-90
2021/09/21 12:53:37;;;;;;;21.70;12.05;;;;;;;8.82;79.74;99354.66;4878769;29;20051;-89
2021/09/21 12:56:10;;;;;;;19.30;10.75;;;;;;;8.62;79.47;99350.38;4877495;29;20048;-91
2021/09/21 12:58:39;;;;;;;18.42;12.00;;;;;;;8.71;79.58;99354.03;4877570;29;20092;-90
2021/09/21 13:01:11;;;;;;;22.58;11.70;;;;;;;8.72;79.95;99357.56;4877381;29;20045;-90
2021/09/21 13:03:40;;;;;;;22.85;10.48;;;;;;;8.75;80.46;99344.16;4877369;29;20447;-89
2021/09/21 13:06:08;;;;;;;20.75;9.63;;;;;;;8.72;79.70;99341.22;4861802;29;20502;-89
2021/09/21 13:08:38;;;;;;;21.02;9.77;;;;;;;8.63;79.75;99355.53;4877120;29;20053;-91
2021/09/21 13:11:05;;;;;;;20.13;10.00;;;;;;;8.67;80.49;99351.09;4878124;29;20450;-88
2021/09/21 13:13:32;;;;;;;22.60;10.73;;;;;;;8.74;80.17;99352.63;4876979;29;20073;-90
2021/09/21 13:16:01;;;;;;;19.38;10.20;;;;;;;8.79;80.03;99349.81;4861602;29;20191;-89
2021/09/21 13:18:27;;;;;;;41.97;15.95;;;;;;;8.75;80.01;99356.97;4877184;29;20097;-89
2021/09/21 13:20:53;;;;;;;24.02;11.45;;;;;;;8.68;79.97;99343.75;4877151;29;20116;-89
2021/09/21 13:23:20;;;;;;;14.38;7.45;;;;;;;8.63;80.01;99352.78;4861906;29;20463;-89
2021/09/21 13:25:46;;;;;;;23.27;8.53;;;;;;;8.70;80.41;99371.47;4876922;29;20056;-90
2021/09/21 13:28:12;;;;;;;15.02;8.95;;;;;;;8.56;79.63;99346.94;4878279;29;20665;-90
2021/09/21 13:30:38;;;;;;;20.20;7.55;;;;;;;8.65;80.06;99360.69;4878136;29;20536;-90
2021/09/21 13:33:05;;;;;;;21.73;11.27;;;;;;;8.72;80.08;99350.19;4861355;29;20396;-92
2021/09/21 13:35:31;;;;;;;21.92;10.30;;;;;;;8.73;79.81;99351.00;4876978;29;20041;-89
2021/09/21 13:37:58;;;;;;;16.57;8.53;;;;;;;8.63;79.50;99347.34;4846161;29;20068;-89
2021/09/21 13:40:26;;;;;;;15.07;7.40;;;;;;;8.45;79.69;99338.13;4877157;29;20293;-89
2021/09/21 13:42:54;;;;;;;17.00;7.63;;;;;;;8.60;79.97;99361.56;4877954;29;20080;-91
2021/09/21 13:45:24;;;;;;;16.58;7.93;;;;;;;8.56;80.27;99351.56;4877031;29;20052;-89
2021/09/21 13:47:52;;;;;;;16.95;9.77;;;;;;;8.61;79.75;99335.13;4876890;29;20037;-88
2021/09/21 13:50:19;;;;;;;15.60;7.53;;;;;;;8.59;79.78;99335.44;4876843;29;20044;-89
2021/09/21 13:52:47;;;;;;;17.88;8.77;;;;;;;8.56;79.96;99336.03;4876441;29;20041;-88
2021/09/21 13:55:15;;;;;;;14.48;6.97;;;;;;;8.52;80.03;99350.56;4876655;29;20124;-91
2021/09/21 13:57:43;;;;;;;14.45;8.07;;;;;;;8.49;80.09;99332.09;4861177;29;20049;-89
2021/09/21 14:00:13;;;;;;;20.42;7.85;;;;;;;8.47;79.80;99338.63;4876505;29;20045;-89
2021/09/21 14:02:40;;;;;;;23.30;7.85;;;;;;;8.54;80.30;99346.41;4861100;29;20488;-89
2021/09/21 14:05:06;;;;;;;20.65;10.02;;;;;;;8.56;80.38;99340.69;4877404;29;20063;-89
2021/09/21 14:07:34;;;;;;;27.35;9.27;;;;;;;8.55;79.84;99339.06;4877670;29;20045;-88
2021/09/21 14:10:00;;;;;;;19.83;8.73;;;;;;;8.65;79.80;99356.03;4860755;29;20064;-89
2021/09/21 14:12:28;;;;;;;26.50;11.00;;;;;;;8.58;80.19;99352.91;4876450;29;20037;-89
2021/09/21 14:14:58;;;;;;;18.83;8.90;;;;;;;8.61;80.17;99349.59;4876514;29;20422;-89
2021/09/21 14:17:24;;;;;;;21.58;8.43;;;;;;;8.43;79.84;99339.53;4877438;29;20037;-89
2021/09/21 14:19:50;;;;;;;18.50;8.52;;;;;;;8.30;80.09;99310.28;4876261;29;20104;-89
2021/09/21 14:22:17;;;;;;;15.68;8.13;;;;;;;8.26;79.95;99326.44;4880259;29;20048;-89
2021/09/21 14:24:43;;;;;;;23.25;9.23;;;;;;;8.34;80.42;99323.00;4881328;29;20345;-88
2021/09/21 14:27:09;;;;;;;25.67;10.13;;;;;;;8.38;80.24;99347.78;4880376;29;20045;-89
2021/09/21 14:29:35;;;;;;;19.70;8.47;;;;;;;8.49;80.54;99338.34;4880148;29;20320;-89
2021/09/21 14:32:03;;;;;;;23.88;9.38;;;;;;;8.54;80.08;99357.31;4881349;29;20566;-89
2021/09/21 14:34:29;;;;;;;24.30;9.10;;;;;;;8.45;80.04;99342.78;4880033;29;20045;-90
2021/09/21 14:36:56;;;;;;;18.05;8.52;;;;;;;8.21;80.39;99337.38;4865391;29;20048;-85
2021/09/21 14:39:24;;;;;;;26.80;11.85;;;;;;;8.41;80.92;99352.63;4898994;29;20048;-82
2021/09/21 14:41:52;;;;;;;25.30;9.48;;;;;;;8.35;80.46;99343.72;4880996;29;20081;-82
2021/09/21 14:44:18;;;;;;;;;;;;;;;8.45;80.99;99361.84;4881255;29;20045;-82
2021/09/21 14:46:46;;;;;;;18.08;7.97;;;;;;;8.40;80.32;99354.53;4880972;29;19983;-81
2021/09/21 14:49:14;;;;;;;24.25;9.93;;;;;;;8.42;80.49;99359.72;4890289;29;20434;-83
2021/09/21 14:51:41;;;;;;;20.45;8.32;;;;;;;8.38;80.28;99364.13;4891241;29;20047;-82
2021/09/21 14:54:09;;;;;;;20.52;9.65;;;;;;;8.29;80.89;99349.53;4880718;29;20558;-82
2021/09/21 14:56:37;;;;;;;21.02;9.93;;;;;;;8.39;80.74;99355.66;4896364;29;20483;-82
2021/09/21 14:59:04;;;;;;;24.48;9.32;;;;;;;8.39;80.35;99352.13;4898787;29;20040;-82
2021/09/21 15:01:30;;;;;;;21.35;9.88;;;;;;;8.31;80.57;99345.41;4898543;29;20533;-81
2021/09/21 15:03:56;;;;;;;19.92;9.43;;;;;;;8.31;80.59;99350.03;4897577;29;20041;-82
2021/09/21 15:06:23;;;;;;;22.25;9.48;;;;;;;8.37;80.88;99360.56;4898830;29;20041;-83
2021/09/21 15:08:49;;;;;;;25.83;11.48;;;;;;;8.37;80.83;99348.84;4880971;29;20554;-84
2021/09/21 15:11:16;;;;;;;33.65;14.43;;;;;;;8.32;80.67;99354.41;4879448;29;20068;-83
2021/09/21 15:13:42;;;;;;;24.50;10.50;;;;;;;8.33;80.90;99348.63;4879690;29;20427;-84
2021/09/21 15:16:09;;;;;;;25.55;11.02;;;;;;;8.29;80.96;99347.63;4879213;29;20045;-84
2021/09/21 15:18:38;;;;;;;24.75;10.00;;;;;;;8.26;80.72;99350.94;4897425;29;20123;-81
2021/09/21 15:21:05;;;;;;;20.63;10.00;;;;;;;8.26;81.02;99350.13;4902785;29;20036;-82
2021/09/21 15:23:31;;;;;;;64.07;31.98;;;;;;;8.30;80.85;99360.13;4897912;29;20053;-82
2021/09/21 15:25:59;;;;;;;22.77;10.25;;;;;;;8.34;80.60;99352.16;4897783;29;20069;-82
2021/09/21 15:28:26;;;;;;;21.38;10.50;;;;;;;8.22;80.87;99341.75;4897972;29;20072;-83
2021/09/21 15:30:52;;;;;;;19.40;10.43;;;;;;;8.29;80.90;99350.34;4897139;29;20040;-83
2021/09/21 15:33:19;;;;;;;21.33;11.07;;;;;;;8.27;81.04;99352.53;4893849;29;20048;-80
2021/09/21 15:35:46;;;;;;;20.52;10.73;;;;;;;8.27;80.85;99352.53;4880745;29;20032;-80
2021/09/21 15:38:13;;;;;;;21.25;11.57;;;;;;;8.18;80.83;99348.91;4900376;29;20048;-82
2021/09/21 15:40:43;;;;;;;17.48;9.27;;;;;;;8.02;81.05;99337.44;4899659;29;20068;-79
2021/09/21 15:43:10;;;;;;;18.48;9.50;;;;;;;8.08;81.34;99351.75;4900351;29;20124;-79
2021/09/21 15:45:37;;;;;;;19.25;10.00;;;;;;;8.11;81.11;99352.00;4886800;29;20096;-79
2021/09/21 15:48:06;;;;;;;21.83;9.52;;;;;;;8.11;80.80;99346.56;4881552;29;20041;-89
2021/09/21 15:50:32;;;;;;;24.65;9.40;;;;;;;8.06;80.81;99354.78;4881570;29;20041;-78
2021/09/21 15:52:59;;;;;;;19.17;8.73;;;;;;;8.07;80.96;99350.94;4881708;29;20072;-92
2021/09/21 15:55:25;;;;;;;18.35;8.82;;;;;;;8.07;80.94;99345.50;4913753;29;20550;-89
2021/09/21 15:57:51;;;;;;;24.23;10.27;;;;;;;8.04;81.14;99359.69;4890854;29;20052;-79
2021/09/21 16:00:24;;;;;;;22.00;9.50;;;;;;;8.05;81.29;99353.16;4901049;29;20043;-81
2021/09/21 16:02:51;;;;;;;21.42;9.38;;;;;;;8.09;80.95;99358.84;4899394;29;20132;-91
2021/09/21 16:05:20;;;;;;;27.50;11.15;;;;;;;8.06;80.67;99348.53;4891432;29;20514;-89
2021/09/21 16:07:47;;;;;;;30.05;9.65;;;;;;;8.05;80.87;99352.38;4902979;29;20048;-92
2021/09/21 16:10:16;;;;;;;20.23;9.23;;;;;;;7.98;81.00;99350.00;4887564;29;20444;-78
2021/09/21 16:12:44;;;;;;;26.63;9.63;;;;;;;8.00;81.26;99348.59;4897651;29;20048;-77
2021/09/21 16:15:10;;;;;;;;;;;;;;;8.03;80.90;99349.13;4899920;29;20048;-93
2021/09/21 16:17:37;;;;;;;24.13;9.20;;;;;;;8.00;81.12;99354.03;4902782;29;19924;-93
2021/09/21 16:20:05;;;;;;;21.48;9.75;;;;;;;8.06;81.23;99354.78;4903524;29;20035;-94
2021/09/21 16:22:31;;;;;;;24.02;9.98;;;;;;;8.10;80.71;99349.56;4911061;29;20053;-80
2021/09/21 16:24:57;;;;;;;40.10;16.63;;;;;;;8.05;80.70;99355.91;4899621;29;20049;-78
2021/09/21 16:27:23;;;;;;;20.63;10.75;;;;;;;8.09;80.84;99348.75;4899561;29;20475;-80
2021/09/21 16:29:50;;;;;;;20.83;10.82;;;;;;;8.01;80.67;99354.84;4899869;29;20131;-80
2021/09/21 16:32:17;;;;;;;22.05;10.80;;;;;;;8.05;80.95;99355.09;4899075;29;20048;-86
2021/09/21 16:34:43;;;;;;;25.50;12.57;;;;;;;8.00;80.62;99342.34;4898963;29;20044;-84
2021/09/21 16:37:10;;;;;;;19.67;9.50;;;;;;;8.02;80.86;99348.31;4898873;29;20048;-80
2021/09/21 16:39:36;;;;;;;16.58;8.90;;;;;;;7.93;80.78;99342.72;4898207;29;20043;-87
2021/09/21 16:42:04;;;;;;;20.60;9.90;;;;;;;7.99;80.98;99346.19;4896500;29;20051;-90
2021/09/21 16:44:31;;;;;;;21.67;10.68;;;;;;;8.05;80.82;99347.72;4884724;29;20072;-80
2021/09/21 16:47:01;;;;;;;20.63;10.95;;;;;;;8.10;80.70;99350.34;4899164;29;20103;-92
2021/09/21 16:49:27;;;;;;;28.58;14.45;;;;;;;8.10;80.78;99342.19;4892737;29;20045;-87
2021/09/21 16:51:55;;;;;;;33.85;14.63;;;;;;;8.12;80.66;99352.81;4907309;29;20040;-92
2021/09/21 16:54:22;;;;;;;27.63;13.80;;;;;;;8.04;80.47;99340.66;4893588;29;20044;-80
2021/09/21 16:56:50;;;;;;;33.67;15.02;;;;;;;8.04;80.29;99351.53;4898937;29;20588;-91
2021/09/21 16:59:16;;;;;;;31.25;13.52;;;;;;;7.93;80.79;99350.88;4905508;29;20040;-81
2021/09/21 17:01:42;;;;;;;29.50;13.27;;;;;;;7.96;80.94;99349.50;4916682;29;20052;-79
2021/09/21 17:04:12;;;;;;;32.53;13.33;;;;;;;7.99;80.82;99338.81;4916023;29;20044;-80
2021/09/21 17:06:42;;;;;;;27.90;13.40;;;;;;;8.04;80.89;99327.03;4916451;29;20048;-80
2021/09/21 17:09:09;;;;;;;28.73;13.70;;;;;;;8.10;80.41;99334.03;4901454;29;20036;-81
2021/09/21 17:11:36;;;;;;;24.33;12.27;;;;;;;8.09;80.49;99337.06;4897453;29;20055;-83